Four Seasons — VZN8709 — position and weather

sailwx.info

Track history (hours):
 
Tides and Currents Weather Stations Pressure Air Temp Water Temp Dewpoint Dewpoint Depression Visibility Wind Speed Wind Dir Waves Ship Positions

Four Seasons

Last reported at 2018-Apr-29 22:18 UTC. Time now 2018-Jun-20 09:29 UTC.
Position S 27°07' E 153°11'.
Warning: this ship's position is 51 days out of date.

Length 12 m.

Type: Sailing vessel. MMSI: 503010380.

Date/timePositionNaut miles runAvg speedWind from/ knotsBaromVisibWave heightAir tempDewpointWater temp
2018-Apr-29 22:18S 27°07' E 153°11'1 2.6
2018-Apr-29 21:55S 27°07' E 153°10'2 4.9
2018-Apr-29 21:30S 27°07' E 153°08'3 5.2
2018-Apr-29 21:00S 27°10' E 153°07'2 2.5
2018-Apr-29 20:23S 27°11' E 153°06'0 0.0
2018-Apr-29 19:56S 27°11' E 153°06'0 0.0
2018-Apr-29 19:20S 27°11' E 153°06'0 0.0
2018-Apr-29 18:59S 27°11' E 153°06'0 0.0
2018-Apr-29 18:29S 27°11' E 153°06'0 0.0
2018-Apr-29 17:59S 27°11' E 153°06'0 0.0
2018-Apr-29 17:29S 27°11' E 153°06'0 0.0
2018-Apr-29 16:59S 27°11' E 153°06'0 0.0
2018-Apr-29 16:26S 27°11' E 153°06'0 0.0
2018-Apr-29 15:53S 27°11' E 153°06'0 0.0
2018-Apr-29 15:26S 27°11' E 153°06'0 0.0
2018-Apr-29 14:59S 27°11' E 153°06'0 0.0
2018-Apr-29 11:50S 27°11' E 153°06'0 0.0
2018-Apr-29 04:06S 27°11' E 153°06'0 2.2
2018-Apr-29 03:59S 27°11' E 153°06'2 4.4
2018-Apr-29 03:26S 27°13' E 153°08'25 0.5
2018-Apr-26 23:26S 27°35' E 153°20'3 5.3
2018-Apr-26 22:56S 27°38' E 153°20'2 4.3
2018-Apr-26 22:30S 27°39' E 153°21'2 4.4
2018-Apr-26 21:56S 27°41' E 153°22'2 4.0
2018-Apr-26 21:30S 27°43' E 153°22'2 3.7
2018-Apr-26 21:00S 27°45' E 153°21'0 0.0
2018-Apr-26 20:28S 27°45' E 153°21'0 0.0
2018-Apr-26 19:55S 27°45' E 153°21'0 0.0
2018-Apr-26 19:28S 27°45' E 153°21'0 0.0
2018-Apr-26 18:58S 27°45' E 153°21'0 0.0
2018-Apr-26 18:28S 27°45' E 153°21'0 0.0
2018-Apr-26 17:58S 27°45' E 153°21'0 0.0
2018-Apr-26 17:28S 27°45' E 153°21'0 0.0
2018-Apr-26 16:58S 27°45' E 153°21'0 0.0
2018-Apr-26 16:28S 27°45' E 153°21'0 0.0
2018-Apr-26 15:58S 27°45' E 153°21'0 0.0
2018-Apr-26 15:28S 27°45' E 153°21'0 0.0
2018-Apr-26 14:58S 27°45' E 153°21'0 0.0
2018-Apr-26 14:28S 27°45' E 153°21'0 0.0
2018-Apr-26 13:55S 27°45' E 153°21'0 0.0
2018-Apr-26 13:28S 27°45' E 153°21'0 0.0
2018-Apr-26 12:58S 27°45' E 153°21'0 0.0
2018-Apr-26 12:28S 27°45' E 153°21'0 0.0
2018-Apr-26 11:58S 27°45' E 153°21'0 0.1
2018-Apr-26 11:28S 27°45' E 153°21'0 0.1
2018-Apr-26 10:58S 27°45' E 153°21'0 0.0
2018-Apr-26 10:28S 27°45' E 153°21'0 0.0
2018-Apr-26 09:58S 27°45' E 153°21'0 0.1
2018-Apr-26 09:25S 27°45' E 153°21'0 0.1
2018-Apr-26 08:58S 27°45' E 153°21'0 0.1
2018-Apr-26 08:28S 27°45' E 153°21'0 0.1
2018-Apr-26 07:58S 27°45' E 153°21'0 0.0
2018-Apr-26 07:28S 27°45' E 153°21'0 0.0
2018-Apr-26 06:58S 27°45' E 153°21'1 3.2
2018-Apr-26 06:30S 27°46' E 153°22'2 3.8
2018-Apr-26 06:00S 27°47' E 153°24'2 3.8
2018-Apr-26 05:30S 27°49' E 153°25'1 1.8
2018-Apr-26 04:58S 27°48' E 153°26'0 0.0
2018-Apr-26 04:25S 27°48' E 153°26'0 0.0
2018-Apr-26 03:58S 27°48' E 153°26'0 0.0
2018-Apr-26 03:28S 27°48' E 153°26'0 0.0
2018-Apr-26 02:58S 27°48' E 153°26'0 0.0
2018-Apr-26 02:28S 27°48' E 153°26'0 0.0
2018-Apr-26 01:58S 27°48' E 153°26'0 0.0
2018-Apr-26 01:28S 27°48' E 153°26'0 0.0
2018-Apr-26 00:58S 27°48' E 153°26'0 0.0
2018-Apr-26 00:28S 27°48' E 153°26'0 0.0
2018-Apr-25 23:58S 27°48' E 153°26'0 0.0
2018-Apr-25 23:28S 27°48' E 153°26'0 0.0
2018-Apr-25 22:58S 27°48' E 153°26'0 0.0
2018-Apr-25 22:28S 27°48' E 153°26'0 0.0
2018-Apr-25 21:58S 27°48' E 153°26'0 0.0
2018-Apr-25 21:01S 27°48' E 153°26'0 0.0
2018-Apr-25 20:58S 27°48' E 153°26'0 0.0
2018-Apr-25 20:28S 27°48' E 153°26'0 0.0
2018-Apr-25 19:58S 27°48' E 153°26'0 0.0
2018-Apr-25 19:28S 27°48' E 153°26'0 0.0
2018-Apr-25 18:58S 27°48' E 153°26'0 0.1
2018-Apr-25 18:28S 27°48' E 153°26'0 0.1
2018-Apr-25 17:55S 27°48' E 153°26'0 0.0
2018-Apr-25 17:28S 27°48' E 153°26'0 0.0
2018-Apr-25 16:58S 27°48' E 153°26'0 0.0
2018-Apr-25 16:28S 27°48' E 153°26'0 0.0
2018-Apr-25 15:58S 27°48' E 153°26'0 0.0
2018-Apr-25 15:28S 27°48' E 153°26'0 0.0
2018-Apr-25 14:58S 27°48' E 153°26'0 0.0
2018-Apr-25 14:28S 27°48' E 153°26'0 0.0
2018-Apr-25 13:58S 27°48' E 153°26'0 0.0
2018-Apr-25 13:28S 27°48' E 153°26'0 0.0
2018-Apr-25 12:58S 27°48' E 153°26'0 0.0
2018-Apr-25 12:28S 27°48' E 153°26'0 0.0
2018-Apr-25 11:58S 27°48' E 153°26'0 0.0
2018-Apr-25 11:28S 27°48' E 153°26'0 0.0
2018-Apr-25 10:58S 27°48' E 153°26'0 0.0
2018-Apr-25 10:28S 27°48' E 153°26'0 0.0
2018-Apr-25 09:58S 27°48' E 153°26'0 0.0
2018-Apr-25 09:25S 27°48' E 153°26'0 0.0
2018-Apr-25 08:55S 27°48' E 153°26'0 0.0
2018-Apr-25 08:28S 27°48' E 153°26'0 0.0
2018-Apr-25 07:58S 27°48' E 153°26'0 0.0
2018-Apr-25 07:28S 27°48' E 153°26'0 0.0
2018-Apr-25 06:58S 27°48' E 153°26'0 0.0
2018-Apr-25 06:28S 27°48' E 153°26'0 0.0
2018-Apr-25 05:58S 27°48' E 153°26'0 0.0
2018-Apr-25 05:28S 27°48' E 153°26'0 0.0
2018-Apr-25 04:59S 27°48' E 153°26'2 4.0
2018-Apr-25 04:30S 27°50' E 153°24'  
Track history (hours):
 
Tides and Currents Weather Stations Pressure Air Temp Water Temp Dewpoint Dewpoint Depression Visibility Wind Speed Wind Dir Waves Ship Positions

Four Seasons

Last reported at 2018-Apr-29 22:18 UTC. Time now 2018-Jun-20 09:29 UTC.
Position S 27°07' E 153°11'.
Warning: this ship's position is 51 days out of date.

Length 12 m.

Type: Sailing vessel. MMSI: 503010380.

Date/timePositionNaut miles runAvg speedWind from/ knotsBaromVisibWave heightAir tempDewpointWater temp
2018-Apr-29 22:18S 27°07' E 153°11'1 2.6
2018-Apr-29 21:55S 27°07' E 153°10'2 4.9
2018-Apr-29 21:30S 27°07' E 153°08'3 5.2
2018-Apr-29 21:00S 27°10' E 153°07'2 2.5
2018-Apr-29 20:23S 27°11' E 153°06'0 0.0
2018-Apr-29 19:56S 27°11' E 153°06'0 0.0
2018-Apr-29 19:20S 27°11' E 153°06'0 0.0
2018-Apr-29 18:59S 27°11' E 153°06'0 0.0
2018-Apr-29 18:29S 27°11' E 153°06'0 0.0
2018-Apr-29 17:59S 27°11' E 153°06'0 0.0
2018-Apr-29 17:29S 27°11' E 153°06'0 0.0
2018-Apr-29 16:59S 27°11' E 153°06'0 0.0
2018-Apr-29 16:26S 27°11' E 153°06'0 0.0
2018-Apr-29 15:53S 27°11' E 153°06'0 0.0
2018-Apr-29 15:26S 27°11' E 153°06'0 0.0
2018-Apr-29 14:59S 27°11' E 153°06'0 0.0
2018-Apr-29 11:50S 27°11' E 153°06'0 0.0
2018-Apr-29 04:06S 27°11' E 153°06'0 2.2
2018-Apr-29 03:59S 27°11' E 153°06'2 4.4
2018-Apr-29 03:26S 27°13' E 153°08'25 0.5
2018-Apr-26 23:26S 27°35' E 153°20'3 5.3
2018-Apr-26 22:56S 27°38' E 153°20'2 4.3
2018-Apr-26 22:30S 27°39' E 153°21'2 4.4
2018-Apr-26 21:56S 27°41' E 153°22'2 4.0
2018-Apr-26 21:30S 27°43' E 153°22'2 3.7
2018-Apr-26 21:00S 27°45' E 153°21'0 0.0
2018-Apr-26 20:28S 27°45' E 153°21'0 0.0
2018-Apr-26 19:55S 27°45' E 153°21'0 0.0
2018-Apr-26 19:28S 27°45' E 153°21'0 0.0
2018-Apr-26 18:58S 27°45' E 153°21'0 0.0
2018-Apr-26 18:28S 27°45' E 153°21'0 0.0
2018-Apr-26 17:58S 27°45' E 153°21'0 0.0
2018-Apr-26 17:28S 27°45' E 153°21'0 0.0
2018-Apr-26 16:58S 27°45' E 153°21'0 0.0
2018-Apr-26 16:28S 27°45' E 153°21'0 0.0
2018-Apr-26 15:58S 27°45' E 153°21'0 0.0
2018-Apr-26 15:28S 27°45' E 153°21'0 0.0
2018-Apr-26 14:58S 27°45' E 153°21'0 0.0
2018-Apr-26 14:28S 27°45' E 153°21'0 0.0
2018-Apr-26 13:55S 27°45' E 153°21'0 0.0
2018-Apr-26 13:28S 27°45' E 153°21'0 0.0
2018-Apr-26 12:58S 27°45' E 153°21'0 0.0
2018-Apr-26 12:28S 27°45' E 153°21'0 0.0
2018-Apr-26 11:58S 27°45' E 153°21'0 0.1
2018-Apr-26 11:28S 27°45' E 153°21'0 0.1
2018-Apr-26 10:58S 27°45' E 153°21'0 0.0
2018-Apr-26 10:28S 27°45' E 153°21'0 0.0
2018-Apr-26 09:58S 27°45' E 153°21'0 0.1
2018-Apr-26 09:25S 27°45' E 153°21'0 0.1
2018-Apr-26 08:58S 27°45' E 153°21'0 0.1
2018-Apr-26 08:28S 27°45' E 153°21'0 0.1
2018-Apr-26 07:58S 27°45' E 153°21'0 0.0
2018-Apr-26 07:28S 27°45' E 153°21'0 0.0
2018-Apr-26 06:58S 27°45' E 153°21'1 3.2
2018-Apr-26 06:30S 27°46' E 153°22'2 3.8
2018-Apr-26 06:00S 27°47' E 153°24'2 3.8
2018-Apr-26 05:30S 27°49' E 153°25'1 1.8
2018-Apr-26 04:58S 27°48' E 153°26'0 0.0
2018-Apr-26 04:25S 27°48' E 153°26'0 0.0
2018-Apr-26 03:58S 27°48' E 153°26'0 0.0
2018-Apr-26 03:28S 27°48' E 153°26'0 0.0
2018-Apr-26 02:58S 27°48' E 153°26'0 0.0
2018-Apr-26 02:28S 27°48' E 153°26'0 0.0
2018-Apr-26 01:58S 27°48' E 153°26'0 0.0
2018-Apr-26 01:28S 27°48' E 153°26'0 0.0
2018-Apr-26 00:58S 27°48' E 153°26'0 0.0
2018-Apr-26 00:28S 27°48' E 153°26'0 0.0
2018-Apr-25 23:58S 27°48' E 153°26'0 0.0
2018-Apr-25 23:28S 27°48' E 153°26'0 0.0
2018-Apr-25 22:58S 27°48' E 153°26'0 0.0
2018-Apr-25 22:28S 27°48' E 153°26'0 0.0
2018-Apr-25 21:58S 27°48' E 153°26'0 0.0
2018-Apr-25 21:01S 27°48' E 153°26'0 0.0
2018-Apr-25 20:58S 27°48' E 153°26'0 0.0
2018-Apr-25 20:28S 27°48' E 153°26'0 0.0
2018-Apr-25 19:58S 27°48' E 153°26'0 0.0
2018-Apr-25 19:28S 27°48' E 153°26'0 0.0
2018-Apr-25 18:58S 27°48' E 153°26'0 0.1
2018-Apr-25 18:28S 27°48' E 153°26'0 0.1
2018-Apr-25 17:55S 27°48' E 153°26'0 0.0
2018-Apr-25 17:28S 27°48' E 153°26'0 0.0
2018-Apr-25 16:58S 27°48' E 153°26'0 0.0
2018-Apr-25 16:28S 27°48' E 153°26'0 0.0
2018-Apr-25 15:58S 27°48' E 153°26'0 0.0
2018-Apr-25 15:28S 27°48' E 153°26'0 0.0
2018-Apr-25 14:58S 27°48' E 153°26'0 0.0
2018-Apr-25 14:28S 27°48' E 153°26'0 0.0
2018-Apr-25 13:58S 27°48' E 153°26'0 0.0
2018-Apr-25 13:28S 27°48' E 153°26'0 0.0
2018-Apr-25 12:58S 27°48' E 153°26'0 0.0
2018-Apr-25 12:28S 27°48' E 153°26'0 0.0
2018-Apr-25 11:58S 27°48' E 153°26'0 0.0
2018-Apr-25 11:28S 27°48' E 153°26'0 0.0
2018-Apr-25 10:58S 27°48' E 153°26'0 0.0
2018-Apr-25 10:28S 27°48' E 153°26'0 0.0
2018-Apr-25 09:58S 27°48' E 153°26'0 0.0
2018-Apr-25 09:25S 27°48' E 153°26'0 0.0
2018-Apr-25 08:55S 27°48' E 153°26'0 0.0
2018-Apr-25 08:28S 27°48' E 153°26'0 0.0
2018-Apr-25 07:58S 27°48' E 153°26'0 0.0
2018-Apr-25 07:28S 27°48' E 153°26'0 0.0
2018-Apr-25 06:58S 27°48' E 153°26'0 0.0
2018-Apr-25 06:28S 27°48' E 153°26'0 0.0
2018-Apr-25 05:58S 27°48' E 153°26'0 0.0
2018-Apr-25 05:28S 27°48' E 153°26'0 0.0
2018-Apr-25 04:59S 27°48' E 153°26'2 4.0
2018-Apr-25 04:30S 27°50' E 153°24'  

Dump ship's entire track history